sensor_id;sensor_type;location;lat;lon;timestamp;P1;durP1;ratioP1;P2;durP2;ratioP2
16516;SDS011;8371;52.272;9.746;2022-11-15T00:01:49;3.50;;;3.40;;
16516;SDS011;8371;52.272;9.746;2022-11-15T00:04:14;3.17;;;3.07;;
16516;SDS011;8371;52.272;9.746;2022-11-15T00:06:40;3.60;;;3.50;;
16516;SDS011;8371;52.272;9.746;2022-11-15T00:09:06;3.70;;;3.53;;
16516;SDS011;8371;52.272;9.746;2022-11-15T00:11:32;3.10;;;3.00;;
16516;SDS011;8371;52.272;9.746;2022-11-15T00:13:57;3.60;;;3.37;;
16516;SDS011;8371;52.272;9.746;2022-11-15T00:16:24;3.40;;;3.30;;
16516;SDS011;8371;52.272;9.746;2022-11-15T00:18:50;3.10;;;3.00;;
16516;SDS011;8371;52.272;9.746;2022-11-15T00:21:16;3.30;;;3.20;;
16516;SDS011;8371;52.272;9.746;2022-11-15T00:23:42;3.83;;;3.70;;
16516;SDS011;8371;52.272;9.746;2022-11-15T00:26:12;3.53;;;3.43;;
16516;SDS011;8371;52.272;9.746;2022-11-15T00:28:39;3.70;;;3.47;;
16516;SDS011;8371;52.272;9.746;2022-11-15T00:31:07;3.80;;;3.60;;
16516;SDS011;8371;52.272;9.746;2022-11-15T00:33:35;3.17;;;3.07;;
16516;SDS011;8371;52.272;9.746;2022-11-15T00:36:05;3.30;;;3.10;;
16516;SDS011;8371;52.272;9.746;2022-11-15T00:38:32;3.60;;;3.50;;
16516;SDS011;8371;52.272;9.746;2022-11-15T00:40:59;3.13;;;3.03;;
16516;SDS011;8371;52.272;9.746;2022-11-15T00:43:25;3.63;;;3.43;;
16516;SDS011;8371;52.272;9.746;2022-11-15T00:45:51;3.17;;;3.07;;
16516;SDS011;8371;52.272;9.746;2022-11-15T00:48:16;3.07;;;2.97;;
16516;SDS011;8371;52.272;9.746;2022-11-15T00:50:42;2.93;;;2.73;;
16516;SDS011;8371;52.272;9.746;2022-11-15T00:53:08;3.50;;;3.20;;
16516;SDS011;8371;52.272;9.746;2022-11-15T00:55:34;2.77;;;2.67;;
16516;SDS011;8371;52.272;9.746;2022-11-15T00:58:00;3.70;;;3.50;;
16516;SDS011;8371;52.272;9.746;2022-11-15T01:00:26;2.93;;;2.83;;
16516;SDS011;8371;52.272;9.746;2022-11-15T01:02:51;3.77;;;3.47;;
16516;SDS011;8371;52.272;9.746;2022-11-15T01:05:17;3.30;;;3.20;;
16516;SDS011;8371;52.272;9.746;2022-11-15T01:07:43;2.83;;;2.73;;
16516;SDS011;8371;52.272;9.746;2022-11-15T01:10:08;2.90;;;2.80;;
16516;SDS011;8371;52.272;9.746;2022-11-15T01:12:34;2.50;;;2.40;;
16516;SDS011;8371;52.272;9.746;2022-11-15T01:15:00;3.00;;;2.90;;
16516;SDS011;8371;52.272;9.746;2022-11-15T01:17:26;2.87;;;2.77;;
16516;SDS011;8371;52.272;9.746;2022-11-15T01:19:52;2.87;;;2.67;;
16516;SDS011;8371;52.272;9.746;2022-11-15T01:22:17;2.90;;;2.80;;
16516;SDS011;8371;52.272;9.746;2022-11-15T01:24:43;3.23;;;3.13;;
16516;SDS011;8371;52.272;9.746;2022-11-15T01:27:09;2.70;;;2.60;;
16516;SDS011;8371;52.272;9.746;2022-11-15T01:29:35;2.93;;;2.83;;
16516;SDS011;8371;52.272;9.746;2022-11-15T01:32:01;3.13;;;3.03;;
16516;SDS011;8371;52.272;9.746;2022-11-15T01:34:27;3.27;;;3.17;;
16516;SDS011;8371;52.272;9.746;2022-11-15T01:36:52;3.20;;;3.10;;
16516;SDS011;8371;52.272;9.746;2022-11-15T01:39:18;3.30;;;3.20;;
16516;SDS011;8371;52.272;9.746;2022-11-15T01:41:44;2.93;;;2.83;;
16516;SDS011;8371;52.272;9.746;2022-11-15T01:47:10;2.70;;;2.50;;
16516;SDS011;8371;52.272;9.746;2022-11-15T01:50:00;3.17;;;3.07;;
16516;SDS011;8371;52.272;9.746;2022-11-15T01:52:31;2.93;;;2.83;;
16516;SDS011;8371;52.272;9.746;2022-11-15T01:55:02;2.57;;;2.47;;
16516;SDS011;8371;52.272;9.746;2022-11-15T01:57:32;3.63;;;3.43;;
16516;SDS011;8371;52.272;9.746;2022-11-15T01:59:57;2.97;;;2.87;;
16516;SDS011;8371;52.272;9.746;2022-11-15T02:02:25;3.40;;;3.20;;
16516;SDS011;8371;52.272;9.746;2022-11-15T02:04:51;3.17;;;2.97;;
16516;SDS011;8371;52.272;9.746;2022-11-15T02:07:17;2.90;;;2.80;;
16516;SDS011;8371;52.272;9.746;2022-11-15T02:09:45;2.67;;;2.57;;
16516;SDS011;8371;52.272;9.746;2022-11-15T02:12:11;2.90;;;2.80;;
16516;SDS011;8371;52.272;9.746;2022-11-15T02:14:41;2.77;;;2.67;;
16516;SDS011;8371;52.272;9.746;2022-11-15T02:33:42;2.97;;;2.77;;
16516;SDS011;8371;52.272;9.746;2022-11-15T02:41:24;3.07;;;2.97;;
16516;SDS011;8371;52.272;9.746;2022-11-15T02:43:54;3.10;;;3.00;;
16516;SDS011;8371;52.272;9.746;2022-11-15T02:49:24;2.83;;;2.73;;
16516;SDS011;8371;52.272;9.746;2022-11-15T02:51:52;2.93;;;2.83;;
16516;SDS011;8371;52.272;9.746;2022-11-15T02:54:25;2.80;;;2.70;;
16516;SDS011;8371;52.272;9.746;2022-11-15T02:56:51;2.97;;;2.87;;
16516;SDS011;8371;52.272;9.746;2022-11-15T03:02:23;3.93;;;2.90;;
16516;SDS011;8371;52.272;9.746;2022-11-15T03:05:24;2.57;;;2.47;;
16516;SDS011;8371;52.272;9.746;2022-11-15T03:08:00;2.70;;;2.60;;
16516;SDS011;8371;52.272;9.746;2022-11-15T03:13:21;2.70;;;2.60;;
16516;SDS011;8371;52.272;9.746;2022-11-15T03:16:01;2.93;;;2.73;;
16516;SDS011;8371;52.272;9.746;2022-11-15T03:18:32;2.10;;;2.10;;
16516;SDS011;8371;52.272;9.746;2022-11-15T03:21:02;2.37;;;2.27;;
16516;SDS011;8371;52.272;9.746;2022-11-15T03:23:30;3.00;;;2.80;;
16516;SDS011;8371;52.272;9.746;2022-11-15T03:25:58;2.87;;;2.67;;
16516;SDS011;8371;52.272;9.746;2022-11-15T03:28:28;3.83;;;3.10;;
16516;SDS011;8371;52.272;9.746;2022-11-15T03:30:55;2.23;;;2.23;;
16516;SDS011;8371;52.272;9.746;2022-11-15T03:33:22;2.30;;;2.20;;
16516;SDS011;8371;52.272;9.746;2022-11-15T03:35:48;2.30;;;2.20;;
16516;SDS011;8371;52.272;9.746;2022-11-15T03:38:22;2.80;;;2.60;;
16516;SDS011;8371;52.272;9.746;2022-11-15T03:46:13;2.37;;;2.27;;
16516;SDS011;8371;52.272;9.746;2022-11-15T03:48:43;4.30;;;2.20;;
16516;SDS011;8371;52.272;9.746;2022-11-15T03:51:11;2.10;;;2.00;;
16516;SDS011;8371;52.272;9.746;2022-11-15T03:53:38;2.07;;;2.07;;
16516;SDS011;8371;52.272;9.746;2022-11-15T03:56:03;2.17;;;2.07;;
16516;SDS011;8371;52.272;9.746;2022-11-15T03:58:29;2.47;;;2.37;;
16516;SDS011;8371;52.272;9.746;2022-11-15T04:00:55;2.07;;;1.97;;
16516;SDS011;8371;52.272;9.746;2022-11-15T04:03:21;2.43;;;2.23;;
16516;SDS011;8371;52.272;9.746;2022-11-15T04:05:46;2.17;;;2.07;;
16516;SDS011;8371;52.272;9.746;2022-11-15T04:08:12;2.13;;;2.03;;
16516;SDS011;8371;52.272;9.746;2022-11-15T04:10:38;3.70;;;2.37;;
16516;SDS011;8371;52.272;9.746;2022-11-15T04:13:03;2.27;;;2.17;;
16516;SDS011;8371;52.272;9.746;2022-11-15T04:15:29;2.60;;;2.50;;
16516;SDS011;8371;52.272;9.746;2022-11-15T04:17:56;2.10;;;2.00;;
16516;SDS011;8371;52.272;9.746;2022-11-15T04:20:26;2.23;;;2.13;;
16516;SDS011;8371;52.272;9.746;2022-11-15T04:23:14;3.17;;;3.00;;
16516;SDS011;8371;52.272;9.746;2022-11-15T04:26:01;1.70;;;1.70;;
16516;SDS011;8371;52.272;9.746;2022-11-15T04:28:28;2.23;;;2.13;;
16516;SDS011;8371;52.272;9.746;2022-11-15T04:30:54;2.43;;;2.33;;
16516;SDS011;8371;52.272;9.746;2022-11-15T04:33:20;2.40;;;2.30;;
16516;SDS011;8371;52.272;9.746;2022-11-15T04:35:46;1.73;;;1.70;;
16516;SDS011;8371;52.272;9.746;2022-11-15T04:38:17;2.30;;;2.20;;
16516;SDS011;8371;52.272;9.746;2022-11-15T04:40:47;2.43;;;2.33;;
16516;SDS011;8371;52.272;9.746;2022-11-15T04:43:13;1.83;;;1.83;;
16516;SDS011;8371;52.272;9.746;2022-11-15T04:45:38;2.47;;;1.97;;
16516;SDS011;8371;52.272;9.746;2022-11-15T04:48:04;1.87;;;1.87;;
16516;SDS011;8371;52.272;9.746;2022-11-15T04:50:30;2.20;;;2.10;;
16516;SDS011;8371;52.272;9.746;2022-11-15T04:52:56;2.10;;;2.10;;
16516;SDS011;8371;52.272;9.746;2022-11-15T04:55:21;2.27;;;2.17;;
16516;SDS011;8371;52.272;9.746;2022-11-15T04:57:47;2.30;;;2.20;;
16516;SDS011;8371;52.272;9.746;2022-11-15T05:00:14;2.43;;;2.33;;
16516;SDS011;8371;52.272;9.746;2022-11-15T05:02:41;2.07;;;1.87;;
16516;SDS011;8371;52.272;9.746;2022-11-15T05:05:25;2.20;;;2.00;;
16516;SDS011;8371;52.272;9.746;2022-11-15T05:07:51;1.90;;;1.70;;
16516;SDS011;8371;52.272;9.746;2022-11-15T05:10:16;2.00;;;2.00;;
16516;SDS011;8371;52.272;9.746;2022-11-15T05:12:42;1.90;;;1.90;;
16516;SDS011;8371;52.272;9.746;2022-11-15T05:15:08;1.83;;;1.83;;
16516;SDS011;8371;52.272;9.746;2022-11-15T05:17:34;1.90;;;1.80;;
16516;SDS011;8371;52.272;9.746;2022-11-15T05:20:00;2.17;;;2.07;;
16516;SDS011;8371;52.272;9.746;2022-11-15T05:22:26;1.67;;;1.67;;
16516;SDS011;8371;52.272;9.746;2022-11-15T05:24:52;1.67;;;1.67;;
16516;SDS011;8371;52.272;9.746;2022-11-15T05:27:18;2.03;;;1.93;;
16516;SDS011;8371;52.272;9.746;2022-11-15T05:29:43;2.30;;;2.20;;
16516;SDS011;8371;52.272;9.746;2022-11-15T05:32:09;2.07;;;1.97;;
16516;SDS011;8371;52.272;9.746;2022-11-15T05:34:37;2.17;;;2.07;;
16516;SDS011;8371;52.272;9.746;2022-11-15T05:37:04;1.80;;;1.80;;
16516;SDS011;8371;52.272;9.746;2022-11-15T05:39:30;2.07;;;1.97;;
16516;SDS011;8371;52.272;9.746;2022-11-15T05:41:57;2.30;;;2.10;;
16516;SDS011;8371;52.272;9.746;2022-11-15T05:44:28;2.13;;;2.03;;
16516;SDS011;8371;52.272;9.746;2022-11-15T05:46:54;2.20;;;2.10;;
16516;SDS011;8371;52.272;9.746;2022-11-15T05:49:22;2.27;;;2.17;;
16516;SDS011;8371;52.272;9.746;2022-11-15T05:51:50;2.07;;;1.97;;
16516;SDS011;8371;52.272;9.746;2022-11-15T05:54:17;2.10;;;2.00;;
16516;SDS011;8371;52.272;9.746;2022-11-15T05:56:45;3.27;;;1.77;;
16516;SDS011;8371;52.272;9.746;2022-11-15T05:59:11;2.43;;;2.33;;
16516;SDS011;8371;52.272;9.746;2022-11-15T06:01:37;2.23;;;2.13;;
16516;SDS011;8371;52.272;9.746;2022-11-15T06:04:04;1.50;;;1.50;;
16516;SDS011;8371;52.272;9.746;2022-11-15T06:06:29;2.13;;;1.97;;
16516;SDS011;8371;52.272;9.746;2022-11-15T06:08:55;2.40;;;2.30;;
16516;SDS011;8371;52.272;9.746;2022-11-15T06:11:21;2.17;;;2.07;;
16516;SDS011;8371;52.272;9.746;2022-11-15T06:13:46;2.10;;;2.07;;
16516;SDS011;8371;52.272;9.746;2022-11-15T06:16:12;2.57;;;2.47;;
16516;SDS011;8371;52.272;9.746;2022-11-15T06:18:38;1.77;;;1.77;;
16516;SDS011;8371;52.272;9.746;2022-11-15T06:21:04;2.43;;;2.33;;
16516;SDS011;8371;52.272;9.746;2022-11-15T06:23:31;2.37;;;2.27;;
16516;SDS011;8371;52.272;9.746;2022-11-15T06:25:58;2.17;;;2.07;;
16516;SDS011;8371;52.272;9.746;2022-11-15T06:28:25;2.37;;;2.27;;
16516;SDS011;8371;52.272;9.746;2022-11-15T06:30:55;2.53;;;2.43;;
16516;SDS011;8371;52.272;9.746;2022-11-15T06:33:21;2.80;;;2.70;;
16516;SDS011;8371;52.272;9.746;2022-11-15T06:35:46;2.30;;;2.20;;
16516;SDS011;8371;52.272;9.746;2022-11-15T06:38:12;2.40;;;2.30;;
16516;SDS011;8371;52.272;9.746;2022-11-15T06:40:38;2.43;;;2.33;;
16516;SDS011;8371;52.272;9.746;2022-11-15T06:43:05;1.80;;;1.80;;
16516;SDS011;8371;52.272;9.746;2022-11-15T06:45:31;2.10;;;2.00;;
16516;SDS011;8371;52.272;9.746;2022-11-15T06:47:57;2.80;;;2.60;;
16516;SDS011;8371;52.272;9.746;2022-11-15T06:50:24;2.30;;;2.20;;
16516;SDS011;8371;52.272;9.746;2022-11-15T06:52:50;2.57;;;2.37;;
16516;SDS011;8371;52.272;9.746;2022-11-15T06:55:16;2.20;;;2.10;;
16516;SDS011;8371;52.272;9.746;2022-11-15T06:57:48;2.40;;;2.20;;
16516;SDS011;8371;52.272;9.746;2022-11-15T07:00:15;2.27;;;2.17;;
16516;SDS011;8371;52.272;9.746;2022-11-15T07:02:42;3.53;;;2.77;;
16516;SDS011;8371;52.272;9.746;2022-11-15T07:05:08;2.30;;;2.20;;
16516;SDS011;8371;52.272;9.746;2022-11-15T07:07:34;2.50;;;2.30;;
16516;SDS011;8371;52.272;9.746;2022-11-15T07:09:59;2.70;;;2.60;;
16516;SDS011;8371;52.272;9.746;2022-11-15T07:12:25;2.50;;;2.40;;
16516;SDS011;8371;52.272;9.746;2022-11-15T07:14:51;2.50;;;2.40;;
16516;SDS011;8371;52.272;9.746;2022-11-15T07:17:16;2.37;;;2.27;;
16516;SDS011;8371;52.272;9.746;2022-11-15T07:19:42;2.60;;;2.40;;
16516;SDS011;8371;52.272;9.746;2022-11-15T07:22:08;3.10;;;2.80;;
16516;SDS011;8371;52.272;9.746;2022-11-15T07:24:33;2.70;;;2.50;;
16516;SDS011;8371;52.272;9.746;2022-11-15T07:26:59;2.73;;;2.63;;
16516;SDS011;8371;52.272;9.746;2022-11-15T07:29:25;3.07;;;2.77;;
16516;SDS011;8371;52.272;9.746;2022-11-15T07:31:51;2.63;;;2.53;;
16516;SDS011;8371;52.272;9.746;2022-11-15T07:34:16;2.47;;;2.37;;
16516;SDS011;8371;52.272;9.746;2022-11-15T07:36:42;2.37;;;2.30;;
16516;SDS011;8371;52.272;9.746;2022-11-15T07:39:08;2.50;;;2.40;;
16516;SDS011;8371;52.272;9.746;2022-11-15T07:41:33;2.20;;;2.10;;
16516;SDS011;8371;52.272;9.746;2022-11-15T07:43:59;2.33;;;2.23;;
16516;SDS011;8371;52.272;9.746;2022-11-15T07:46:25;2.43;;;2.33;;
16516;SDS011;8371;52.272;9.746;2022-11-15T07:48:51;2.07;;;1.97;;
16516;SDS011;8371;52.272;9.746;2022-11-15T07:51:17;2.23;;;2.13;;
16516;SDS011;8371;52.272;9.746;2022-11-15T07:53:42;2.13;;;2.07;;
16516;SDS011;8371;52.272;9.746;2022-11-15T07:56:09;2.23;;;2.13;;
16516;SDS011;8371;52.272;9.746;2022-11-15T07:58:35;2.90;;;2.70;;
16516;SDS011;8371;52.272;9.746;2022-11-15T08:01:09;2.37;;;2.27;;
16516;SDS011;8371;52.272;9.746;2022-11-15T08:03:35;2.37;;;2.23;;
16516;SDS011;8371;52.272;9.746;2022-11-15T08:06:02;2.20;;;2.10;;
16516;SDS011;8371;52.272;9.746;2022-11-15T08:08:28;2.30;;;2.23;;
16516;SDS011;8371;52.272;9.746;2022-11-15T08:10:53;2.70;;;2.60;;
16516;SDS011;8371;52.272;9.746;2022-11-15T08:13:19;2.37;;;2.27;;
16516;SDS011;8371;52.272;9.746;2022-11-15T08:15:46;2.17;;;2.07;;
16516;SDS011;8371;52.272;9.746;2022-11-15T08:18:16;2.60;;;2.40;;
16516;SDS011;8371;52.272;9.746;2022-11-15T08:20:40;2.07;;;1.97;;
16516;SDS011;8371;52.272;9.746;2022-11-15T08:23:06;2.53;;;2.40;;
16516;SDS011;8371;52.272;9.746;2022-11-15T08:25:34;2.37;;;2.27;;
16516;SDS011;8371;52.272;9.746;2022-11-15T08:28:01;2.30;;;2.20;;
16516;SDS011;8371;52.272;9.746;2022-11-15T08:30:28;2.03;;;1.97;;
16516;SDS011;8371;52.272;9.746;2022-11-15T08:32:56;2.10;;;2.00;;
16516;SDS011;8371;52.272;9.746;2022-11-15T08:35:22;2.20;;;2.10;;
16516;SDS011;8371;52.272;9.746;2022-11-15T08:37:49;2.70;;;2.60;;
16516;SDS011;8371;52.272;9.746;2022-11-15T08:42:54;2.20;;;2.20;;
16516;SDS011;8371;52.272;9.746;2022-11-15T08:45:19;2.10;;;1.87;;
16516;SDS011;8371;52.272;9.746;2022-11-15T08:47:45;2.10;;;1.90;;
16516;SDS011;8371;52.272;9.746;2022-11-15T08:50:11;2.43;;;2.33;;
16516;SDS011;8371;52.272;9.746;2022-11-15T08:52:37;2.00;;;1.90;;
16516;SDS011;8371;52.272;9.746;2022-11-15T08:55:03;2.33;;;2.23;;
16516;SDS011;8371;52.272;9.746;2022-11-15T08:57:29;2.00;;;1.93;;
16516;SDS011;8371;52.272;9.746;2022-11-15T08:59:55;2.03;;;1.93;;
16516;SDS011;8371;52.272;9.746;2022-11-15T09:02:21;2.17;;;2.07;;
16516;SDS011;8371;52.272;9.746;2022-11-15T09:04:47;1.80;;;1.70;;
16516;SDS011;8371;52.272;9.746;2022-11-15T09:07:13;1.90;;;1.83;;
16516;SDS011;8371;52.272;9.746;2022-11-15T09:09:39;1.73;;;1.73;;
16516;SDS011;8371;52.272;9.746;2022-11-15T09:12:05;2.17;;;2.07;;
16516;SDS011;8371;52.272;9.746;2022-11-15T09:14:31;1.80;;;1.80;;
16516;SDS011;8371;52.272;9.746;2022-11-15T09:16:57;1.47;;;1.47;;
16516;SDS011;8371;52.272;9.746;2022-11-15T09:19:23;1.73;;;1.73;;
16516;SDS011;8371;52.272;9.746;2022-11-15T09:21:49;1.80;;;1.80;;
16516;SDS011;8371;52.272;9.746;2022-11-15T09:24:15;2.10;;;2.00;;
16516;SDS011;8371;52.272;9.746;2022-11-15T09:26:41;2.20;;;2.10;;
16516;SDS011;8371;52.272;9.746;2022-11-15T09:29:06;2.30;;;2.10;;
16516;SDS011;8371;52.272;9.746;2022-11-15T09:31:32;2.10;;;2.00;;
16516;SDS011;8371;52.272;9.746;2022-11-15T09:33:58;2.50;;;2.40;;
16516;SDS011;8371;52.272;9.746;2022-11-15T09:36:24;1.93;;;1.93;;
16516;SDS011;8371;52.272;9.746;2022-11-15T09:38:50;1.87;;;1.77;;
16516;SDS011;8371;52.272;9.746;2022-11-15T09:44:19;1.77;;;1.77;;
16516;SDS011;8371;52.272;9.746;2022-11-15T09:46:53;1.73;;;1.73;;
16516;SDS011;8371;52.272;9.746;2022-11-15T09:49:17;1.30;;;1.30;;
16516;SDS011;8371;52.272;9.746;2022-11-15T09:51:44;1.60;;;1.60;;
16516;SDS011;8371;52.272;9.746;2022-11-15T09:56:48;1.90;;;1.80;;
16516;SDS011;8371;52.272;9.746;2022-11-15T09:59:25;1.97;;;1.87;;
16516;SDS011;8371;52.272;9.746;2022-11-15T10:04:48;1.57;;;1.57;;
16516;SDS011;8371;52.272;9.746;2022-11-15T10:07:28;1.60;;;1.60;;
16516;SDS011;8371;52.272;9.746;2022-11-15T10:12:52;1.67;;;1.57;;
16516;SDS011;8371;52.272;9.746;2022-11-15T10:15:19;3.83;;;2.00;;
16516;SDS011;8371;52.272;9.746;2022-11-15T10:20:50;1.63;;;1.53;;
16516;SDS011;8371;52.272;9.746;2022-11-15T10:23:20;1.60;;;1.60;;
16516;SDS011;8371;52.272;9.746;2022-11-15T10:25:48;1.60;;;1.60;;
16516;SDS011;8371;52.272;9.746;2022-11-15T10:28:27;1.60;;;1.50;;
16516;SDS011;8371;52.272;9.746;2022-11-15T10:30:55;1.50;;;1.40;;
16516;SDS011;8371;52.272;9.746;2022-11-15T10:44:20;1.33;;;1.33;;
16516;SDS011;8371;52.272;9.746;2022-11-15T10:46:49;2.70;;;1.70;;
16516;SDS011;8371;52.272;9.746;2022-11-15T10:49:23;1.97;;;1.90;;
16516;SDS011;8371;52.272;9.746;2022-11-15T10:51:53;1.40;;;1.40;;
16516;SDS011;8371;52.272;9.746;2022-11-15T10:54:22;1.47;;;1.47;;
16516;SDS011;8371;52.272;9.746;2022-11-15T10:57:06;1.90;;;1.80;;
16516;SDS011;8371;52.272;9.746;2022-11-15T10:59:35;1.73;;;1.63;;
16516;SDS011;8371;52.272;9.746;2022-11-15T11:02:21;1.70;;;1.60;;
16516;SDS011;8371;52.272;9.746;2022-11-15T11:04:49;2.70;;;1.77;;
16516;SDS011;8371;52.272;9.746;2022-11-15T11:07:20;1.80;;;1.80;;
16516;SDS011;8371;52.272;9.746;2022-11-15T11:09:56;1.60;;;1.60;;
16516;SDS011;8371;52.272;9.746;2022-11-15T11:12:32;1.70;;;1.70;;
16516;SDS011;8371;52.272;9.746;2022-11-15T11:14:57;2.00;;;1.90;;
16516;SDS011;8371;52.272;9.746;2022-11-15T11:25:34;1.80;;;1.70;;
16516;SDS011;8371;52.272;9.746;2022-11-15T11:28:28;1.60;;;1.60;;
16516;SDS011;8371;52.272;9.746;2022-11-15T11:31:05;1.50;;;1.50;;
16516;SDS011;8371;52.272;9.746;2022-11-15T11:36:26;1.50;;;1.50;;
16516;SDS011;8371;52.272;9.746;2022-11-15T11:44:46;1.30;;;1.30;;
16516;SDS011;8371;52.272;9.746;2022-11-15T11:47:30;1.63;;;1.57;;
16516;SDS011;8371;52.272;9.746;2022-11-15T11:52:46;1.40;;;1.40;;
16516;SDS011;8371;52.272;9.746;2022-11-15T11:55:32;1.30;;;1.30;;
16516;SDS011;8371;52.272;9.746;2022-11-15T11:58:09;1.20;;;1.20;;
16516;SDS011;8371;52.272;9.746;2022-11-15T12:00:45;1.10;;;1.10;;
16516;SDS011;8371;52.272;9.746;2022-11-15T12:03:26;1.50;;;1.50;;
16516;SDS011;8371;52.272;9.746;2022-11-15T12:06:10;1.40;;;1.40;;
16516;SDS011;8371;52.272;9.746;2022-11-15T12:08:53;1.43;;;1.43;;
16516;SDS011;8371;52.272;9.746;2022-11-15T12:11:55;1.47;;;1.47;;
16516;SDS011;8371;52.272;9.746;2022-11-15T12:14:45;1.63;;;1.53;;
16516;SDS011;8371;52.272;9.746;2022-11-15T12:17:19;1.73;;;1.63;;
16516;SDS011;8371;52.272;9.746;2022-11-15T12:19:46;1.43;;;1.43;;
16516;SDS011;8371;52.272;9.746;2022-11-15T12:22:15;1.43;;;1.43;;
16516;SDS011;8371;52.272;9.746;2022-11-15T12:24:54;1.70;;;1.57;;
16516;SDS011;8371;52.272;9.746;2022-11-15T12:27:29;1.70;;;1.60;;
16516;SDS011;8371;52.272;9.746;2022-11-15T12:29:58;1.67;;;1.63;;
16516;SDS011;8371;52.272;9.746;2022-11-15T12:32:31;2.57;;;1.60;;
16516;SDS011;8371;52.272;9.746;2022-11-15T12:34:59;1.60;;;1.60;;
16516;SDS011;8371;52.272;9.746;2022-11-15T12:40:21;1.53;;;1.50;;
16516;SDS011;8371;52.272;9.746;2022-11-15T12:42:59;1.53;;;1.53;;
16516;SDS011;8371;52.272;9.746;2022-11-15T12:45:31;1.17;;;1.17;;
16516;SDS011;8371;52.272;9.746;2022-11-15T12:51:03;1.53;;;1.53;;
16516;SDS011;8371;52.272;9.746;2022-11-15T12:53:30;1.80;;;1.70;;
16516;SDS011;8371;52.272;9.746;2022-11-15T12:58:42;2.70;;;2.60;;
16516;SDS011;8371;52.272;9.746;2022-11-15T13:04:13;2.70;;;2.60;;
16516;SDS011;8371;52.272;9.746;2022-11-15T13:06:43;2.00;;;1.90;;
16516;SDS011;8371;52.272;9.746;2022-11-15T13:17:26;1.33;;;1.33;;
16516;SDS011;8371;52.272;9.746;2022-11-15T13:22:37;1.73;;;1.60;;
16516;SDS011;8371;52.272;9.746;2022-11-15T13:28:01;1.40;;;1.40;;
16516;SDS011;8371;52.272;9.746;2022-11-15T13:30:30;1.40;;;1.40;;
16516;SDS011;8371;52.272;9.746;2022-11-15T13:32:58;1.50;;;1.50;;
16516;SDS011;8371;52.272;9.746;2022-11-15T13:35:27;1.50;;;1.40;;
16516;SDS011;8371;52.272;9.746;2022-11-15T13:37:54;1.87;;;1.87;;
16516;SDS011;8371;52.272;9.746;2022-11-15T13:40:23;1.40;;;1.40;;
16516;SDS011;8371;52.272;9.746;2022-11-15T13:42:54;1.30;;;1.30;;
16516;SDS011;8371;52.272;9.746;2022-11-15T13:45:20;1.77;;;1.77;;
16516;SDS011;8371;52.272;9.746;2022-11-15T13:47:51;1.47;;;1.47;;
16516;SDS011;8371;52.272;9.746;2022-11-15T13:50:22;2.53;;;2.27;;
16516;SDS011;8371;52.272;9.746;2022-11-15T13:52:51;2.63;;;1.60;;
16516;SDS011;8371;52.272;9.746;2022-11-15T13:55:19;1.83;;;1.83;;
16516;SDS011;8371;52.272;9.746;2022-11-15T13:57:48;1.93;;;1.83;;
16516;SDS011;8371;52.272;9.746;2022-11-15T14:00:37;1.57;;;1.57;;
16516;SDS011;8371;52.272;9.746;2022-11-15T14:02:55;1.60;;;1.60;;
16516;SDS011;8371;52.272;9.746;2022-11-15T14:05:23;1.70;;;1.60;;
16516;SDS011;8371;52.272;9.746;2022-11-15T14:07:53;1.30;;;1.30;;
16516;SDS011;8371;52.272;9.746;2022-11-15T14:10:33;1.47;;;1.40;;
16516;SDS011;8371;52.272;9.746;2022-11-15T14:13:02;1.50;;;1.50;;
16516;SDS011;8371;52.272;9.746;2022-11-15T14:15:30;1.67;;;1.67;;
16516;SDS011;8371;52.272;9.746;2022-11-15T14:17:58;1.70;;;1.60;;
16516;SDS011;8371;52.272;9.746;2022-11-15T14:22:54;1.30;;;1.30;;
16516;SDS011;8371;52.272;9.746;2022-11-15T14:25:22;1.40;;;1.40;;
16516;SDS011;8371;52.272;9.746;2022-11-15T14:30:46;1.13;;;1.13;;
16516;SDS011;8371;52.272;9.746;2022-11-15T14:36:04;1.37;;;1.37;;
16516;SDS011;8371;52.272;9.746;2022-11-15T14:38:32;1.27;;;1.27;;
16516;SDS011;8371;52.272;9.746;2022-11-15T14:40:58;1.77;;;1.67;;
16516;SDS011;8371;52.272;9.746;2022-11-15T14:43:23;1.50;;;1.47;;
16516;SDS011;8371;52.272;9.746;2022-11-15T14:45:49;1.60;;;1.50;;
16516;SDS011;8371;52.272;9.746;2022-11-15T14:48:15;1.20;;;1.20;;
16516;SDS011;8371;52.272;9.746;2022-11-15T14:50:40;1.30;;;1.30;;
16516;SDS011;8371;52.272;9.746;2022-11-15T14:53:06;1.80;;;1.70;;
16516;SDS011;8371;52.272;9.746;2022-11-15T14:55:34;1.57;;;1.47;;
16516;SDS011;8371;52.272;9.746;2022-11-15T14:58:02;1.50;;;1.50;;
16516;SDS011;8371;52.272;9.746;2022-11-15T15:00:33;1.60;;;1.50;;
16516;SDS011;8371;52.272;9.746;2022-11-15T15:03:01;1.77;;;1.30;;
16516;SDS011;8371;52.272;9.746;2022-11-15T15:05:31;1.20;;;1.20;;
16516;SDS011;8371;52.272;9.746;2022-11-15T15:08:00;1.47;;;1.43;;
16516;SDS011;8371;52.272;9.746;2022-11-15T15:10:27;1.10;;;1.10;;
16516;SDS011;8371;52.272;9.746;2022-11-15T15:12:55;1.43;;;1.33;;
16516;SDS011;8371;52.272;9.746;2022-11-15T15:15:25;1.40;;;1.40;;
16516;SDS011;8371;52.272;9.746;2022-11-15T15:17:53;1.33;;;1.30;;
16516;SDS011;8371;52.272;9.746;2022-11-15T15:20:18;1.60;;;1.50;;
16516;SDS011;8371;52.272;9.746;2022-11-15T15:22:44;1.40;;;1.40;;
16516;SDS011;8371;52.272;9.746;2022-11-15T15:27:58;2.30;;;1.50;;
16516;SDS011;8371;52.272;9.746;2022-11-15T15:30:24;1.17;;;1.17;;
16516;SDS011;8371;52.272;9.746;2022-11-15T15:32:52;1.87;;;1.80;;
16516;SDS011;8371;52.272;9.746;2022-11-15T15:35:17;1.43;;;1.37;;
16516;SDS011;8371;52.272;9.746;2022-11-15T15:37:44;1.57;;;1.50;;
16516;SDS011;8371;52.272;9.746;2022-11-15T15:40:13;1.40;;;1.40;;
16516;SDS011;8371;52.272;9.746;2022-11-15T15:42:41;1.30;;;1.30;;
16516;SDS011;8371;52.272;9.746;2022-11-15T15:45:07;1.70;;;1.60;;
16516;SDS011;8371;52.272;9.746;2022-11-15T15:47:34;1.37;;;1.37;;
16516;SDS011;8371;52.272;9.746;2022-11-15T15:50:00;1.97;;;1.90;;
16516;SDS011;8371;52.272;9.746;2022-11-15T15:52:25;2.13;;;2.03;;
16516;SDS011;8371;52.272;9.746;2022-11-15T15:54:51;2.20;;;2.00;;
16516;SDS011;8371;52.272;9.746;2022-11-15T15:57:17;1.90;;;1.80;;
16516;SDS011;8371;52.272;9.746;2022-11-15T15:59:43;1.70;;;1.70;;
16516;SDS011;8371;52.272;9.746;2022-11-15T16:02:14;1.60;;;1.60;;
16516;SDS011;8371;52.272;9.746;2022-11-15T16:04:38;1.67;;;1.67;;
16516;SDS011;8371;52.272;9.746;2022-11-15T16:07:04;1.70;;;1.70;;
16516;SDS011;8371;52.272;9.746;2022-11-15T16:09:30;1.73;;;1.63;;
16516;SDS011;8371;52.272;9.746;2022-11-15T16:12:14;1.50;;;1.50;;
16516;SDS011;8371;52.272;9.746;2022-11-15T16:14:50;1.47;;;1.47;;
16516;SDS011;8371;52.272;9.746;2022-11-15T16:17:17;1.73;;;1.63;;
16516;SDS011;8371;52.272;9.746;2022-11-15T16:19:45;1.67;;;1.57;;
16516;SDS011;8371;52.272;9.746;2022-11-15T16:22:11;1.77;;;1.33;;
16516;SDS011;8371;52.272;9.746;2022-11-15T16:24:37;2.00;;;2.00;;
16516;SDS011;8371;52.272;9.746;2022-11-15T16:27:03;3.40;;;2.30;;
16516;SDS011;8371;52.272;9.746;2022-11-15T16:29:29;2.43;;;2.33;;
16516;SDS011;8371;52.272;9.746;2022-11-15T16:31:55;2.43;;;2.33;;
16516;SDS011;8371;52.272;9.746;2022-11-15T16:34:21;2.30;;;2.20;;
16516;SDS011;8371;52.272;9.746;2022-11-15T16:36:47;3.57;;;2.33;;
16516;SDS011;8371;52.272;9.746;2022-11-15T16:39:13;2.93;;;2.17;;
16516;SDS011;8371;52.272;9.746;2022-11-15T16:41:40;1.63;;;1.63;;
16516;SDS011;8371;52.272;9.746;2022-11-15T16:44:08;2.20;;;2.10;;
16516;SDS011;8371;52.272;9.746;2022-11-15T16:46:40;2.13;;;1.93;;
16516;SDS011;8371;52.272;9.746;2022-11-15T16:49:13;2.27;;;2.17;;
16516;SDS011;8371;52.272;9.746;2022-11-15T16:51:44;2.40;;;2.30;;
16516;SDS011;8371;52.272;9.746;2022-11-15T16:54:09;2.23;;;2.13;;
16516;SDS011;8371;52.272;9.746;2022-11-15T16:56:35;2.63;;;2.47;;
16516;SDS011;8371;52.272;9.746;2022-11-15T16:59:01;4.80;;;2.70;;
16516;SDS011;8371;52.272;9.746;2022-11-15T17:01:27;3.07;;;2.87;;
16516;SDS011;8371;52.272;9.746;2022-11-15T17:03:55;2.53;;;2.43;;
16516;SDS011;8371;52.272;9.746;2022-11-15T17:06:21;2.83;;;2.67;;
16516;SDS011;8371;52.272;9.746;2022-11-15T17:08:47;2.50;;;2.40;;
16516;SDS011;8371;52.272;9.746;2022-11-15T17:11:14;2.70;;;2.60;;